sensor_id;sensor_type;location;lat;lon;timestamp;P1;durP1;ratioP1;P2;durP2;ratioP2
15764;SDS011;7983;50.744;7.086;2024-01-25T00:00:04;10.05;;;2.90;;
15764;SDS011;7983;50.744;7.086;2024-01-25T00:02:31;15.32;;;3.55;;
15764;SDS011;7983;50.744;7.086;2024-01-25T00:04:56;15.07;;;3.95;;
15764;SDS011;7983;50.744;7.086;2024-01-25T00:07:22;12.55;;;3.35;;
15764;SDS011;7983;50.744;7.086;2024-01-25T00:09:50;17.45;;;3.85;;
15764;SDS011;7983;50.744;7.086;2024-01-25T00:12:15;12.88;;;3.25;;
15764;SDS011;7983;50.744;7.086;2024-01-25T00:14:41;14.07;;;3.53;;
15764;SDS011;7983;50.744;7.086;2024-01-25T00:17:07;11.00;;;3.10;;
15764;SDS011;7983;50.744;7.086;2024-01-25T00:19:34;12.75;;;3.30;;
15764;SDS011;7983;50.744;7.086;2024-01-25T00:22:00;13.93;;;3.38;;
15764;SDS011;7983;50.744;7.086;2024-01-25T00:24:26;14.60;;;3.80;;
15764;SDS011;7983;50.744;7.086;2024-01-25T00:26:53;16.02;;;3.83;;
15764;SDS011;7983;50.744;7.086;2024-01-25T00:29:19;18.10;;;3.67;;
15764;SDS011;7983;50.744;7.086;2024-01-25T00:31:47;18.52;;;4.28;;
15764;SDS011;7983;50.744;7.086;2024-01-25T00:34:13;17.65;;;3.20;;
15764;SDS011;7983;50.744;7.086;2024-01-25T00:36:41;16.13;;;3.83;;
15764;SDS011;7983;50.744;7.086;2024-01-25T00:39:07;11.30;;;3.40;;
15764;SDS011;7983;50.744;7.086;2024-01-25T00:41:35;10.32;;;2.92;;
15764;SDS011;7983;50.744;7.086;2024-01-25T00:44:01;19.02;;;3.40;;
15764;SDS011;7983;50.744;7.086;2024-01-25T00:46:27;15.85;;;3.47;;
15764;SDS011;7983;50.744;7.086;2024-01-25T00:48:53;10.52;;;3.50;;
15764;SDS011;7983;50.744;7.086;2024-01-25T00:51:20;17.98;;;3.88;;
15764;SDS011;7983;50.744;7.086;2024-01-25T00:53:48;16.23;;;3.67;;
15764;SDS011;7983;50.744;7.086;2024-01-25T00:56:19;20.00;;;3.95;;
15764;SDS011;7983;50.744;7.086;2024-01-25T00:58:45;19.10;;;4.25;;
15764;SDS011;7983;50.744;7.086;2024-01-25T01:01:11;16.02;;;3.45;;
15764;SDS011;7983;50.744;7.086;2024-01-25T01:03:37;14.07;;;3.47;;
15764;SDS011;7983;50.744;7.086;2024-01-25T01:06:05;9.00;;;2.90;;
15764;SDS011;7983;50.744;7.086;2024-01-25T01:08:33;16.85;;;4.07;;
15764;SDS011;7983;50.744;7.086;2024-01-25T01:11:00;17.00;;;3.90;;
15764;SDS011;7983;50.744;7.086;2024-01-25T01:13:25;19.40;;;4.30;;
15764;SDS011;7983;50.744;7.086;2024-01-25T01:15:56;14.88;;;3.28;;
15764;SDS011;7983;50.744;7.086;2024-01-25T01:18:23;13.65;;;3.63;;
15764;SDS011;7983;50.744;7.086;2024-01-25T01:20:49;13.82;;;3.80;;
15764;SDS011;7983;50.744;7.086;2024-01-25T01:23:17;19.75;;;4.03;;
15764;SDS011;7983;50.744;7.086;2024-01-25T01:25:42;16.17;;;4.22;;
15764;SDS011;7983;50.744;7.086;2024-01-25T01:28:10;13.13;;;4.20;;
15764;SDS011;7983;50.744;7.086;2024-01-25T01:30:36;12.57;;;3.67;;
15764;SDS011;7983;50.744;7.086;2024-01-25T01:33:01;15.65;;;3.60;;
15764;SDS011;7983;50.744;7.086;2024-01-25T01:35:30;10.65;;;3.17;;
15764;SDS011;7983;50.744;7.086;2024-01-25T01:37:55;15.43;;;3.78;;
15764;SDS011;7983;50.744;7.086;2024-01-25T01:40:21;17.70;;;4.45;;
15764;SDS011;7983;50.744;7.086;2024-01-25T01:42:46;16.05;;;4.25;;
15764;SDS011;7983;50.744;7.086;2024-01-25T01:45:12;15.98;;;4.10;;
15764;SDS011;7983;50.744;7.086;2024-01-25T01:47:38;17.67;;;3.80;;
15764;SDS011;7983;50.744;7.086;2024-01-25T01:50:06;16.25;;;4.03;;
15764;SDS011;7983;50.744;7.086;2024-01-25T01:52:33;15.93;;;3.72;;
15764;SDS011;7983;50.744;7.086;2024-01-25T01:55:01;13.05;;;2.90;;
15764;SDS011;7983;50.744;7.086;2024-01-25T01:57:27;14.90;;;3.47;;
15764;SDS011;7983;50.744;7.086;2024-01-25T01:59:56;15.23;;;4.00;;
15764;SDS011;7983;50.744;7.086;2024-01-25T02:02:26;13.90;;;3.53;;
15764;SDS011;7983;50.744;7.086;2024-01-25T02:04:52;13.75;;;3.70;;
15764;SDS011;7983;50.744;7.086;2024-01-25T02:07:17;13.98;;;3.22;;
15764;SDS011;7983;50.744;7.086;2024-01-25T02:09:45;14.15;;;3.35;;
15764;SDS011;7983;50.744;7.086;2024-01-25T02:12:14;11.00;;;3.17;;
15764;SDS011;7983;50.744;7.086;2024-01-25T02:14:42;12.52;;;3.20;;
15764;SDS011;7983;50.744;7.086;2024-01-25T02:17:08;12.18;;;3.58;;
15764;SDS011;7983;50.744;7.086;2024-01-25T02:19:34;17.23;;;3.20;;
15764;SDS011;7983;50.744;7.086;2024-01-25T02:22:03;11.70;;;3.35;;
15764;SDS011;7983;50.744;7.086;2024-01-25T02:24:32;11.82;;;3.38;;
15764;SDS011;7983;50.744;7.086;2024-01-25T02:26:58;12.75;;;2.92;;
15764;SDS011;7983;50.744;7.086;2024-01-25T02:29:24;11.57;;;3.33;;
15764;SDS011;7983;50.744;7.086;2024-01-25T02:31:51;11.48;;;3.20;;
15764;SDS011;7983;50.744;7.086;2024-01-25T02:34:19;10.85;;;3.15;;
15764;SDS011;7983;50.744;7.086;2024-01-25T02:36:47;13.23;;;4.07;;
15764;SDS011;7983;50.744;7.086;2024-01-25T02:39:15;12.63;;;3.47;;
15764;SDS011;7983;50.744;7.086;2024-01-25T02:41:43;9.88;;;3.33;;
15764;SDS011;7983;50.744;7.086;2024-01-25T02:44:09;13.63;;;3.15;;
15764;SDS011;7983;50.744;7.086;2024-01-25T02:46:38;14.40;;;3.03;;
15764;SDS011;7983;50.744;7.086;2024-01-25T02:49:04;12.38;;;3.22;;
15764;SDS011;7983;50.744;7.086;2024-01-25T02:51:34;14.32;;;3.38;;
15764;SDS011;7983;50.744;7.086;2024-01-25T02:54:00;13.45;;;3.38;;
15764;SDS011;7983;50.744;7.086;2024-01-25T02:56:25;12.02;;;3.60;;
15764;SDS011;7983;50.744;7.086;2024-01-25T02:58:51;14.85;;;3.40;;
15764;SDS011;7983;50.744;7.086;2024-01-25T03:01:17;15.57;;;3.45;;
15764;SDS011;7983;50.744;7.086;2024-01-25T03:03:42;11.93;;;3.35;;
15764;SDS011;7983;50.744;7.086;2024-01-25T03:06:08;14.25;;;3.15;;
15764;SDS011;7983;50.744;7.086;2024-01-25T03:08:34;11.82;;;3.15;;
15764;SDS011;7983;50.744;7.086;2024-01-25T03:10:59;15.95;;;3.88;;
15764;SDS011;7983;50.744;7.086;2024-01-25T03:13:27;8.30;;;2.97;;
15764;SDS011;7983;50.744;7.086;2024-01-25T03:15:55;14.45;;;3.25;;
15764;SDS011;7983;50.744;7.086;2024-01-25T03:18:26;12.23;;;3.33;;
15764;SDS011;7983;50.744;7.086;2024-01-25T03:20:52;16.00;;;3.60;;
15764;SDS011;7983;50.744;7.086;2024-01-25T03:23:19;15.98;;;3.80;;
15764;SDS011;7983;50.744;7.086;2024-01-25T03:25:48;12.07;;;3.13;;
15764;SDS011;7983;50.744;7.086;2024-01-25T03:28:16;13.20;;;3.33;;
15764;SDS011;7983;50.744;7.086;2024-01-25T03:30:46;12.68;;;3.17;;
15764;SDS011;7983;50.744;7.086;2024-01-25T03:33:14;13.60;;;4.10;;
15764;SDS011;7983;50.744;7.086;2024-01-25T03:35:39;14.30;;;3.72;;
15764;SDS011;7983;50.744;7.086;2024-01-25T03:38:05;13.63;;;3.70;;
15764;SDS011;7983;50.744;7.086;2024-01-25T03:40:31;17.48;;;3.42;;
15764;SDS011;7983;50.744;7.086;2024-01-25T03:42:56;14.45;;;3.08;;
15764;SDS011;7983;50.744;7.086;2024-01-25T03:45:24;17.20;;;3.80;;
15764;SDS011;7983;50.744;7.086;2024-01-25T03:47:53;13.98;;;3.35;;
15764;SDS011;7983;50.744;7.086;2024-01-25T03:50:18;11.70;;;3.17;;
15764;SDS011;7983;50.744;7.086;2024-01-25T03:52:48;17.17;;;3.83;;
15764;SDS011;7983;50.744;7.086;2024-01-25T03:55:14;13.32;;;3.58;;
15764;SDS011;7983;50.744;7.086;2024-01-25T03:57:40;13.48;;;3.10;;
15764;SDS011;7983;50.744;7.086;2024-01-25T04:00:07;13.52;;;3.75;;
15764;SDS011;7983;50.744;7.086;2024-01-25T04:02:33;13.23;;;3.80;;
15764;SDS011;7983;50.744;7.086;2024-01-25T04:04:58;16.63;;;4.17;;
15764;SDS011;7983;50.744;7.086;2024-01-25T04:07:24;14.45;;;3.72;;
15764;SDS011;7983;50.744;7.086;2024-01-25T04:09:51;14.60;;;3.53;;
15764;SDS011;7983;50.744;7.086;2024-01-25T04:12:17;13.37;;;3.63;;
15764;SDS011;7983;50.744;7.086;2024-01-25T04:14:43;16.63;;;4.40;;
15764;SDS011;7983;50.744;7.086;2024-01-25T04:17:08;18.17;;;4.07;;
15764;SDS011;7983;50.744;7.086;2024-01-25T04:19:35;9.35;;;3.15;;
15764;SDS011;7983;50.744;7.086;2024-01-25T04:22:01;11.32;;;3.20;;
15764;SDS011;7983;50.744;7.086;2024-01-25T04:24:27;12.67;;;3.87;;
15764;SDS011;7983;50.744;7.086;2024-01-25T04:26:55;13.70;;;3.58;;
15764;SDS011;7983;50.744;7.086;2024-01-25T04:29:20;10.50;;;3.25;;
15764;SDS011;7983;50.744;7.086;2024-01-25T04:31:46;14.70;;;3.65;;
15764;SDS011;7983;50.744;7.086;2024-01-25T04:34:13;12.27;;;3.15;;
15764;SDS011;7983;50.744;7.086;2024-01-25T04:36:42;9.73;;;3.15;;
15764;SDS011;7983;50.744;7.086;2024-01-25T04:39:08;18.73;;;3.73;;
15764;SDS011;7983;50.744;7.086;2024-01-25T04:41:33;9.85;;;2.95;;
15764;SDS011;7983;50.744;7.086;2024-01-25T04:44:01;11.33;;;3.37;;
15764;SDS011;7983;50.744;7.086;2024-01-25T04:46:29;12.07;;;3.60;;
15764;SDS011;7983;50.744;7.086;2024-01-25T04:49:00;15.52;;;3.38;;
15764;SDS011;7983;50.744;7.086;2024-01-25T04:51:26;9.73;;;3.57;;
15764;SDS011;7983;50.744;7.086;2024-01-25T04:53:54;15.30;;;3.90;;
15764;SDS011;7983;50.744;7.086;2024-01-25T04:56:22;12.43;;;4.00;;
15764;SDS011;7983;50.744;7.086;2024-01-25T04:58:47;16.07;;;3.70;;
15764;SDS011;7983;50.744;7.086;2024-01-25T05:01:13;18.37;;;3.87;;
15764;SDS011;7983;50.744;7.086;2024-01-25T05:03:41;13.13;;;3.63;;
15764;SDS011;7983;50.744;7.086;2024-01-25T05:06:06;14.43;;;3.57;;
15764;SDS011;7983;50.744;7.086;2024-01-25T05:08:32;16.97;;;4.00;;
15764;SDS011;7983;50.744;7.086;2024-01-25T05:11:00;17.37;;;3.60;;
15764;SDS011;7983;50.744;7.086;2024-01-25T05:13:26;13.50;;;4.10;;
15764;SDS011;7983;50.744;7.086;2024-01-25T05:15:52;14.03;;;4.50;;
15764;SDS011;7983;50.744;7.086;2024-01-25T05:18:19;16.17;;;3.80;;
15764;SDS011;7983;50.744;7.086;2024-01-25T05:20:47;14.30;;;3.80;;
15764;SDS011;7983;50.744;7.086;2024-01-25T05:23:13;14.60;;;3.73;;
15764;SDS011;7983;50.744;7.086;2024-01-25T05:25:41;15.00;;;3.97;;
15764;SDS011;7983;50.744;7.086;2024-01-25T05:28:06;15.37;;;4.27;;
15764;SDS011;7983;50.744;7.086;2024-01-25T05:30:32;16.07;;;3.90;;
15764;SDS011;7983;50.744;7.086;2024-01-25T05:32:58;14.50;;;4.67;;
15764;SDS011;7983;50.744;7.086;2024-01-25T05:35:23;11.30;;;3.30;;
15764;SDS011;7983;50.744;7.086;2024-01-25T05:37:51;14.47;;;3.70;;
15764;SDS011;7983;50.744;7.086;2024-01-25T05:40:17;17.33;;;5.00;;
15764;SDS011;7983;50.744;7.086;2024-01-25T05:42:43;14.23;;;3.73;;
15764;SDS011;7983;50.744;7.086;2024-01-25T05:45:09;15.53;;;3.80;;
15764;SDS011;7983;50.744;7.086;2024-01-25T05:47:35;16.30;;;4.10;;
15764;SDS011;7983;50.744;7.086;2024-01-25T05:50:00;12.63;;;3.53;;
15764;SDS011;7983;50.744;7.086;2024-01-25T05:52:30;16.63;;;4.70;;
15764;SDS011;7983;50.744;7.086;2024-01-25T05:54:58;17.87;;;4.33;;
15764;SDS011;7983;50.744;7.086;2024-01-25T05:57:23;14.07;;;3.77;;
15764;SDS011;7983;50.744;7.086;2024-01-25T05:59:51;15.83;;;4.87;;
15764;SDS011;7983;50.744;7.086;2024-01-25T06:02:19;13.20;;;3.93;;
15764;SDS011;7983;50.744;7.086;2024-01-25T06:04:50;16.90;;;5.07;;
15764;SDS011;7983;50.744;7.086;2024-01-25T06:07:18;16.53;;;4.33;;
15764;SDS011;7983;50.744;7.086;2024-01-25T06:09:45;16.13;;;4.17;;
15764;SDS011;7983;50.744;7.086;2024-01-25T06:12:10;13.40;;;3.87;;
15764;SDS011;7983;50.744;7.086;2024-01-25T06:14:36;11.97;;;3.90;;
15764;SDS011;7983;50.744;7.086;2024-01-25T06:17:09;14.67;;;3.67;;
15764;SDS011;7983;50.744;7.086;2024-01-25T06:19:34;12.43;;;3.60;;
15764;SDS011;7983;50.744;7.086;2024-01-25T06:22:02;14.60;;;3.53;;
15764;SDS011;7983;50.744;7.086;2024-01-25T06:24:28;11.13;;;3.80;;
15764;SDS011;7983;50.744;7.086;2024-01-25T06:26:54;15.83;;;3.80;;
15764;SDS011;7983;50.744;7.086;2024-01-25T06:29:19;12.83;;;4.03;;
15764;SDS011;7983;50.744;7.086;2024-01-25T06:31:45;13.40;;;3.80;;
15764;SDS011;7983;50.744;7.086;2024-01-25T06:34:13;17.57;;;3.47;;
15764;SDS011;7983;50.744;7.086;2024-01-25T06:36:39;12.93;;;3.57;;
15764;SDS011;7983;50.744;7.086;2024-01-25T06:39:07;9.60;;;3.47;;
15764;SDS011;7983;50.744;7.086;2024-01-25T06:41:33;12.47;;;3.40;;
15764;SDS011;7983;50.744;7.086;2024-01-25T06:44:01;15.27;;;3.67;;
15764;SDS011;7983;50.744;7.086;2024-01-25T06:46:27;13.33;;;3.60;;
15764;SDS011;7983;50.744;7.086;2024-01-25T06:48:58;14.57;;;3.63;;
15764;SDS011;7983;50.744;7.086;2024-01-25T06:51:26;16.83;;;3.87;;
15764;SDS011;7983;50.744;7.086;2024-01-25T06:53:54;13.97;;;3.87;;
15764;SDS011;7983;50.744;7.086;2024-01-25T06:56:20;12.67;;;3.60;;
15764;SDS011;7983;50.744;7.086;2024-01-25T06:58:45;13.47;;;3.50;;
15764;SDS011;7983;50.744;7.086;2024-01-25T07:01:11;15.60;;;4.73;;
15764;SDS011;7983;50.744;7.086;2024-01-25T07:03:39;15.57;;;3.63;;
15764;SDS011;7983;50.744;7.086;2024-01-25T07:06:04;13.67;;;3.53;;
15764;SDS011;7983;50.744;7.086;2024-01-25T07:08:30;10.90;;;3.63;;
15764;SDS011;7983;50.744;7.086;2024-01-25T07:10:56;10.50;;;3.50;;
15764;SDS011;7983;50.744;7.086;2024-01-25T07:13:24;10.83;;;3.40;;
15764;SDS011;7983;50.744;7.086;2024-01-25T07:15:50;17.23;;;3.97;;
15764;SDS011;7983;50.744;7.086;2024-01-25T07:18:15;12.10;;;3.33;;
15764;SDS011;7983;50.744;7.086;2024-01-25T07:20:41;10.80;;;3.70;;
15764;SDS011;7983;50.744;7.086;2024-01-25T07:23:07;11.13;;;3.43;;
15764;SDS011;7983;50.744;7.086;2024-01-25T07:25:32;15.77;;;4.40;;
15764;SDS011;7983;50.744;7.086;2024-01-25T07:27:58;11.77;;;3.63;;
15764;SDS011;7983;50.744;7.086;2024-01-25T07:30:23;10.03;;;3.63;;
15764;SDS011;7983;50.744;7.086;2024-01-25T07:32:51;13.40;;;3.83;;
15764;SDS011;7983;50.744;7.086;2024-01-25T07:35:19;13.17;;;3.63;;
15764;SDS011;7983;50.744;7.086;2024-01-25T07:37:45;13.40;;;3.60;;
15764;SDS011;7983;50.744;7.086;2024-01-25T07:40:16;14.63;;;3.80;;
15764;SDS011;7983;50.744;7.086;2024-01-25T07:42:46;13.30;;;3.87;;
15764;SDS011;7983;50.744;7.086;2024-01-25T07:45:14;11.87;;;3.57;;
15764;SDS011;7983;50.744;7.086;2024-01-25T07:47:45;13.13;;;3.70;;
15764;SDS011;7983;50.744;7.086;2024-01-25T07:50:11;13.77;;;4.03;;
15764;SDS011;7983;50.744;7.086;2024-01-25T07:52:36;12.83;;;4.00;;
15764;SDS011;7983;50.744;7.086;2024-01-25T07:55:05;12.23;;;4.10;;
15764;SDS011;7983;50.744;7.086;2024-01-25T07:57:34;14.83;;;4.47;;
15764;SDS011;7983;50.744;7.086;2024-01-25T08:00:00;14.20;;;3.93;;
15764;SDS011;7983;50.744;7.086;2024-01-25T08:02:25;13.17;;;4.20;;
15764;SDS011;7983;50.744;7.086;2024-01-25T08:04:53;13.27;;;4.87;;
15764;SDS011;7983;50.744;7.086;2024-01-25T08:07:21;12.63;;;4.40;;
15764;SDS011;7983;50.744;7.086;2024-01-25T08:09:46;13.23;;;4.33;;
15764;SDS011;7983;50.744;7.086;2024-01-25T08:12:18;16.07;;;4.23;;
15764;SDS011;7983;50.744;7.086;2024-01-25T08:14:45;12.53;;;4.30;;
15764;SDS011;7983;50.744;7.086;2024-01-25T08:17:14;11.53;;;4.50;;
15764;SDS011;7983;50.744;7.086;2024-01-25T08:19:39;10.70;;;4.03;;
15764;SDS011;7983;50.744;7.086;2024-01-25T08:22:07;11.27;;;3.70;;
15764;SDS011;7983;50.744;7.086;2024-01-25T08:24:34;9.27;;;3.90;;
15764;SDS011;7983;50.744;7.086;2024-01-25T08:27:04;14.60;;;3.90;;
15764;SDS011;7983;50.744;7.086;2024-01-25T08:29:32;10.10;;;3.10;;
15764;SDS011;7983;50.744;7.086;2024-01-25T08:31:58;12.47;;;3.70;;
15764;SDS011;7983;50.744;7.086;2024-01-25T08:34:23;11.67;;;3.37;;
15764;SDS011;7983;50.744;7.086;2024-01-25T08:36:54;9.57;;;3.80;;
15764;SDS011;7983;50.744;7.086;2024-01-25T08:39:19;10.80;;;3.90;;
15764;SDS011;7983;50.744;7.086;2024-01-25T08:41:45;11.83;;;3.97;;
15764;SDS011;7983;50.744;7.086;2024-01-25T08:44:14;9.53;;;3.83;;
15764;SDS011;7983;50.744;7.086;2024-01-25T08:46:40;11.23;;;3.53;;
15764;SDS011;7983;50.744;7.086;2024-01-25T08:49:07;10.40;;;4.07;;
15764;SDS011;7983;50.744;7.086;2024-01-25T08:51:35;14.43;;;4.10;;
15764;SDS011;7983;50.744;7.086;2024-01-25T08:54:03;11.03;;;3.80;;
15764;SDS011;7983;50.744;7.086;2024-01-25T08:56:31;14.80;;;4.40;;
15764;SDS011;7983;50.744;7.086;2024-01-25T08:58:59;13.17;;;4.03;;
15764;SDS011;7983;50.744;7.086;2024-01-25T09:01:25;11.70;;;4.00;;
15764;SDS011;7983;50.744;7.086;2024-01-25T09:03:53;12.93;;;4.25;;
15764;SDS011;7983;50.744;7.086;2024-01-25T09:06:18;15.70;;;4.83;;
15764;SDS011;7983;50.744;7.086;2024-01-25T09:08:46;14.37;;;4.67;;
15764;SDS011;7983;50.744;7.086;2024-01-25T09:11:14;13.20;;;4.45;;
15764;SDS011;7983;50.744;7.086;2024-01-25T09:13:45;13.70;;;3.73;;
15764;SDS011;7983;50.744;7.086;2024-01-25T09:16:12;9.65;;;3.72;;
15764;SDS011;7983;50.744;7.086;2024-01-25T09:18:38;10.20;;;3.63;;
15764;SDS011;7983;50.744;7.086;2024-01-25T09:21:06;11.95;;;3.90;;
15764;SDS011;7983;50.744;7.086;2024-01-25T09:23:32;10.80;;;3.50;;
15764;SDS011;7983;50.744;7.086;2024-01-25T09:26:01;12.30;;;3.47;;
15764;SDS011;7983;50.744;7.086;2024-01-25T09:28:26;13.27;;;3.47;;
15764;SDS011;7983;50.744;7.086;2024-01-25T09:30:52;13.52;;;4.00;;
15764;SDS011;7983;50.744;7.086;2024-01-25T09:33:20;9.73;;;3.15;;
15764;SDS011;7983;50.744;7.086;2024-01-25T09:35:48;13.15;;;3.80;;
15764;SDS011;7983;50.744;7.086;2024-01-25T09:38:13;10.43;;;3.40;;
15764;SDS011;7983;50.744;7.086;2024-01-25T09:40:39;10.75;;;3.35;;
15764;SDS011;7983;50.744;7.086;2024-01-25T09:43:05;9.95;;;3.53;;
15764;SDS011;7983;50.744;7.086;2024-01-25T09:45:31;10.70;;;3.63;;
15764;SDS011;7983;50.744;7.086;2024-01-25T09:47:59;13.40;;;3.85;;
15764;SDS011;7983;50.744;7.086;2024-01-25T09:50:29;11.00;;;3.45;;
15764;SDS011;7983;50.744;7.086;2024-01-25T09:53:00;9.23;;;3.53;;
15764;SDS011;7983;50.744;7.086;2024-01-25T09:55:31;13.18;;;3.80;;
15764;SDS011;7983;50.744;7.086;2024-01-25T09:58:05;14.05;;;3.35;;
15764;SDS011;7983;50.744;7.086;2024-01-25T10:00:34;16.10;;;4.30;;
15764;SDS011;7983;50.744;7.086;2024-01-25T10:03:00;12.07;;;3.60;;
15764;SDS011;7983;50.744;7.086;2024-01-25T10:05:29;10.70;;;3.70;;
15764;SDS011;7983;50.744;7.086;2024-01-25T10:07:54;14.63;;;3.90;;
15764;SDS011;7983;50.744;7.086;2024-01-25T10:10:31;13.60;;;3.63;;
15764;SDS011;7983;50.744;7.086;2024-01-25T10:13:00;11.55;;;4.55;;
15764;SDS011;7983;50.744;7.086;2024-01-25T10:15:26;14.95;;;3.75;;
15764;SDS011;7983;50.744;7.086;2024-01-25T10:17:54;19.77;;;3.70;;
15764;SDS011;7983;50.744;7.086;2024-01-25T10:20:20;9.60;;;3.45;;
15764;SDS011;7983;50.744;7.086;2024-01-25T10:22:49;13.18;;;3.47;;
15764;SDS011;7983;50.744;7.086;2024-01-25T10:25:15;12.43;;;3.40;;
15764;SDS011;7983;50.744;7.086;2024-01-25T10:27:43;8.95;;;3.28;;
15764;SDS011;7983;50.744;7.086;2024-01-25T10:30:09;12.05;;;3.53;;
15764;SDS011;7983;50.744;7.086;2024-01-25T10:32:38;14.55;;;4.35;;
15764;SDS011;7983;50.744;7.086;2024-01-25T10:35:08;10.63;;;3.60;;
15764;SDS011;7983;50.744;7.086;2024-01-25T10:37:41;12.60;;;4.05;;
15764;SDS011;7983;50.744;7.086;2024-01-25T10:40:09;17.40;;;4.45;;
15764;SDS011;7983;50.744;7.086;2024-01-25T10:42:35;12.40;;;4.25;;
15764;SDS011;7983;50.744;7.086;2024-01-25T10:45:00;14.32;;;4.03;;
15764;SDS011;7983;50.744;7.086;2024-01-25T10:47:26;10.38;;;3.45;;
15764;SDS011;7983;50.744;7.086;2024-01-25T10:49:59;12.40;;;3.78;;
15764;SDS011;7983;50.744;7.086;2024-01-25T10:52:27;14.93;;;3.88;;
15764;SDS011;7983;50.744;7.086;2024-01-25T10:54:54;11.52;;;3.80;;
15764;SDS011;7983;50.744;7.086;2024-01-25T10:57:20;16.27;;;4.32;;
15764;SDS011;7983;50.744;7.086;2024-01-25T10:59:45;17.77;;;3.95;;
15764;SDS011;7983;50.744;7.086;2024-01-25T11:02:11;13.55;;;3.95;;
15764;SDS011;7983;50.744;7.086;2024-01-25T11:04:42;13.15;;;4.00;;
15764;SDS011;7983;50.744;7.086;2024-01-25T11:07:22;12.77;;;3.60;;
15764;SDS011;7983;50.744;7.086;2024-01-25T11:09:53;12.23;;;3.38;;
15764;SDS011;7983;50.744;7.086;2024-01-25T11:12:19;10.95;;;3.35;;
15764;SDS011;7983;50.744;7.086;2024-01-25T11:14:45;13.70;;;4.10;;
15764;SDS011;7983;50.744;7.086;2024-01-25T11:20:15;9.20;;;3.30;;
15764;SDS011;7983;50.744;7.086;2024-01-25T11:22:44;10.27;;;3.10;;
15764;SDS011;7983;50.744;7.086;2024-01-25T11:25:21;8.63;;;3.22;;
15764;SDS011;7983;50.744;7.086;2024-01-25T11:27:52;11.65;;;3.30;;
15764;SDS011;7983;50.744;7.086;2024-01-25T11:30:19;9.15;;;3.05;;
15764;SDS011;7983;50.744;7.086;2024-01-25T11:32:48;15.20;;;3.63;;
15764;SDS011;7983;50.744;7.086;2024-01-25T11:35:14;13.80;;;3.30;;
15764;SDS011;7983;50.744;7.086;2024-01-25T11:37:49;12.32;;;3.17;;
15764;SDS011;7983;50.744;7.086;2024-01-25T11:40:22;17.55;;;3.50;;
15764;SDS011;7983;50.744;7.086;2024-01-25T11:42:50;14.45;;;3.35;;
15764;SDS011;7983;50.744;7.086;2024-01-25T11:45:18;9.52;;;2.83;;
15764;SDS011;7983;50.744;7.086;2024-01-25T11:47:44;10.60;;;3.10;;
15764;SDS011;7983;50.744;7.086;2024-01-25T11:50:10;11.77;;;3.13;;
15764;SDS011;7983;50.744;7.086;2024-01-25T11:52:39;11.13;;;3.20;;
15764;SDS011;7983;50.744;7.086;2024-01-25T11:55:06;13.27;;;3.17;;
15764;SDS011;7983;50.744;7.086;2024-01-25T11:57:40;11.35;;;3.13;;
15764;SDS011;7983;50.744;7.086;2024-01-25T12:00:07;12.75;;;3.20;;
15764;SDS011;7983;50.744;7.086;2024-01-25T12:02:37;12.07;;;3.10;;
15764;SDS011;7983;50.744;7.086;2024-01-25T12:05:03;12.05;;;2.90;;
15764;SDS011;7983;50.744;7.086;2024-01-25T12:07:30;10.25;;;3.13;;
15764;SDS011;7983;50.744;7.086;2024-01-25T12:09:59;11.07;;;2.75;;
15764;SDS011;7983;50.744;7.086;2024-01-25T12:12:30;11.80;;;2.97;;
15764;SDS011;7983;50.744;7.086;2024-01-25T12:14:59;10.20;;;2.92;;
15764;SDS011;7983;50.744;7.086;2024-01-25T12:17:30;10.95;;;3.75;;
15764;SDS011;7983;50.744;7.086;2024-01-25T12:19:56;8.60;;;2.70;;
15764;SDS011;7983;50.744;7.086;2024-01-25T12:22:28;10.00;;;3.45;;
15764;SDS011;7983;50.744;7.086;2024-01-25T12:24:54;11.85;;;2.90;;
15764;SDS011;7983;50.744;7.086;2024-01-25T12:27:26;12.43;;;2.90;;
15764;SDS011;7983;50.744;7.086;2024-01-25T12:29:56;10.32;;;2.80;;
15764;SDS011;7983;50.744;7.086;2024-01-25T12:32:24;11.30;;;3.25;;
15764;SDS011;7983;50.744;7.086;2024-01-25T12:34:56;11.68;;;2.88;;
15764;SDS011;7983;50.744;7.086;2024-01-25T12:37:23;15.20;;;3.40;;
15764;SDS011;7983;50.744;7.086;2024-01-25T12:39:52;10.30;;;2.70;;
15764;SDS011;7983;50.744;7.086;2024-01-25T12:42:19;8.95;;;2.40;;
15764;SDS011;7983;50.744;7.086;2024-01-25T12:44:49;10.02;;;3.30;;
15764;SDS011;7983;50.744;7.086;2024-01-25T12:47:16;11.30;;;2.95;;
15764;SDS011;7983;50.744;7.086;2024-01-25T12:49:42;9.15;;;2.72;;
15764;SDS011;7983;50.744;7.086;2024-01-25T12:52:12;9.38;;;2.83;;
15764;SDS011;7983;50.744;7.086;2024-01-25T12:54:39;10.50;;;2.67;;
15764;SDS011;7983;50.744;7.086;2024-01-25T12:57:05;9.52;;;2.90;;
15764;SDS011;7983;50.744;7.086;2024-01-25T12:59:32;8.82;;;2.90;;
15764;SDS011;7983;50.744;7.086;2024-01-25T13:02:00;9.25;;;2.80;;
15764;SDS011;7983;50.744;7.086;2024-01-25T13:04:26;12.63;;;2.65;;
15764;SDS011;7983;50.744;7.086;2024-01-25T13:06:52;8.73;;;2.75;;
15764;SDS011;7983;50.744;7.086;2024-01-25T13:09:23;8.70;;;2.78;;
15764;SDS011;7983;50.744;7.086;2024-01-25T13:11:53;7.47;;;2.50;;
15764;SDS011;7983;50.744;7.086;2024-01-25T13:14:18;9.85;;;2.90;;
15764;SDS011;7983;50.744;7.086;2024-01-25T13:16:44;9.02;;;2.42;;
15764;SDS011;7983;50.744;7.086;2024-01-25T13:19:10;7.45;;;2.72;;
15764;SDS011;7983;50.744;7.086;2024-01-25T13:21:38;8.00;;;2.50;;
15764;SDS011;7983;50.744;7.086;2024-01-25T13:24:06;7.85;;;2.67;;
15764;SDS011;7983;50.744;7.086;2024-01-25T13:26:32;8.57;;;2.85;;
15764;SDS011;7983;50.744;7.086;2024-01-25T13:28:59;6.35;;;2.65;;
15764;SDS011;7983;50.744;7.086;2024-01-25T13:31:25;6.50;;;2.53;;
15764;SDS011;7983;50.744;7.086;2024-01-25T13:33:50;7.95;;;2.70;;
15764;SDS011;7983;50.744;7.086;2024-01-25T13:36:16;6.88;;;2.65;;
15764;SDS011;7983;50.744;7.086;2024-01-25T13:38:42;11.20;;;3.00;;
15764;SDS011;7983;50.744;7.086;2024-01-25T13:41:10;10.50;;;2.63;;
15764;SDS011;7983;50.744;7.086;2024-01-25T13:43:36;7.75;;;2.30;;
15764;SDS011;7983;50.744;7.086;2024-01-25T13:46:02;9.35;;;2.40;;
15764;SDS011;7983;50.744;7.086;2024-01-25T13:48:27;8.93;;;2.95;;
15764;SDS011;7983;50.744;7.086;2024-01-25T13:50:55;6.90;;;2.80;;
15764;SDS011;7983;50.744;7.086;2024-01-25T13:53:21;9.63;;;2.03;;
15764;SDS011;7983;50.744;7.086;2024-01-25T13:56:03;16.13;;;2.38;;
15764;SDS011;7983;50.744;7.086;2024-01-25T13:58:31;11.05;;;3.03;;
15764;SDS011;7983;50.744;7.086;2024-01-25T14:00:57;8.68;;;2.45;;
15764;SDS011;7983;50.744;7.086;2024-01-25T14:03:22;7.68;;;2.50;;
15764;SDS011;7983;50.744;7.086;2024-01-25T14:05:50;8.75;;;2.65;;
15764;SDS011;7983;50.744;7.086;2024-01-25T14:08:20;6.45;;;2.47;;
15764;SDS011;7983;50.744;7.086;2024-01-25T14:10:46;6.72;;;2.25;;
15764;SDS011;7983;50.744;7.086;2024-01-25T14:13:11;10.13;;;2.83;;
15764;SDS011;7983;50.744;7.086;2024-01-25T14:15:42;9.68;;;3.08;;
15764;SDS011;7983;50.744;7.086;2024-01-25T14:18:12;7.57;;;2.38;;
15764;SDS011;7983;50.744;7.086;2024-01-25T14:20:38;9.50;;;2.58;;
15764;SDS011;7983;50.744;7.086;2024-01-25T14:23:03;8.40;;;2.80;;
15764;SDS011;7983;50.744;7.086;2024-01-25T14:25:29;7.63;;;2.42;;
15764;SDS011;7983;50.744;7.086;2024-01-25T14:27:55;9.45;;;2.22;;
15764;SDS011;7983;50.744;7.086;2024-01-25T14:30:21;9.23;;;3.10;;
15764;SDS011;7983;50.744;7.086;2024-01-25T14:32:47;10.32;;;3.28;;
15764;SDS011;7983;50.744;7.086;2024-01-25T14:35:12;8.82;;;2.85;;
15764;SDS011;7983;50.744;7.086;2024-01-25T14:37:38;10.68;;;3.25;;
15764;SDS011;7983;50.744;7.086;2024-01-25T14:40:04;10.13;;;3.17;;
15764;SDS011;7983;50.744;7.086;2024-01-25T14:42:30;10.45;;;3.30;;
15764;SDS011;7983;50.744;7.086;2024-01-25T14:44:55;6.78;;;2.35;;
15764;SDS011;7983;50.744;7.086;2024-01-25T14:47:21;9.18;;;2.70;;
15764;SDS011;7983;50.744;7.086;2024-01-25T14:49:47;9.20;;;2.75;;
15764;SDS011;7983;50.744;7.086;2024-01-25T14:52:17;7.53;;;2.65;;